sensor_id;sensor_type;location;lat;lon;timestamp;P1;durP1;ratioP1;P2;durP2;ratioP2
36989;SDS011;22898;52.102;5.776;2023-06-22T00:00:50;2.15;;;1.45;;
36989;SDS011;22898;52.102;5.776;2023-06-22T00:03:20;1.67;;;1.33;;
36989;SDS011;22898;52.102;5.776;2023-06-22T00:05:47;2.83;;;1.65;;
36989;SDS011;22898;52.102;5.776;2023-06-22T00:08:13;2.05;;;1.42;;
36989;SDS011;22898;52.102;5.776;2023-06-22T00:10:40;1.60;;;1.20;;
36989;SDS011;22898;52.102;5.776;2023-06-22T00:13:06;1.25;;;1.13;;
36989;SDS011;22898;52.102;5.776;2023-06-22T00:15:32;1.58;;;1.30;;
36989;SDS011;22898;52.102;5.776;2023-06-22T00:17:59;1.10;;;1.00;;
36989;SDS011;22898;52.102;5.776;2023-06-22T00:20:25;1.20;;;1.05;;
36989;SDS011;22898;52.102;5.776;2023-06-22T00:22:58;1.48;;;1.08;;
36989;SDS011;22898;52.102;5.776;2023-06-22T00:25:25;1.73;;;1.25;;
36989;SDS011;22898;52.102;5.776;2023-06-22T00:27:51;1.58;;;1.30;;
36989;SDS011;22898;52.102;5.776;2023-06-22T00:30:17;3.70;;;1.50;;
36989;SDS011;22898;52.102;5.776;2023-06-22T00:32:43;1.10;;;1.02;;
36989;SDS011;22898;52.102;5.776;2023-06-22T00:35:09;1.75;;;1.33;;
36989;SDS011;22898;52.102;5.776;2023-06-22T00:37:35;1.75;;;1.10;;
36989;SDS011;22898;52.102;5.776;2023-06-22T00:40:02;2.38;;;1.77;;
36989;SDS011;22898;52.102;5.776;2023-06-22T00:42:29;1.20;;;1.10;;
36989;SDS011;22898;52.102;5.776;2023-06-22T00:44:55;1.35;;;1.10;;
36989;SDS011;22898;52.102;5.776;2023-06-22T00:47:20;1.00;;;0.98;;
36989;SDS011;22898;52.102;5.776;2023-06-22T00:49:47;1.27;;;1.15;;
36989;SDS011;22898;52.102;5.776;2023-06-22T00:52:16;5.18;;;1.65;;
36989;SDS011;22898;52.102;5.776;2023-06-22T00:54:46;1.40;;;0.98;;
36989;SDS011;22898;52.102;5.776;2023-06-22T00:57:16;2.33;;;1.67;;
36989;SDS011;22898;52.102;5.776;2023-06-22T00:59:43;2.00;;;1.25;;
36989;SDS011;22898;52.102;5.776;2023-06-22T01:02:09;2.47;;;1.10;;
36989;SDS011;22898;52.102;5.776;2023-06-22T01:04:36;2.22;;;1.63;;
36989;SDS011;22898;52.102;5.776;2023-06-22T01:07:27;2.65;;;1.60;;
36989;SDS011;22898;52.102;5.776;2023-06-22T01:12:38;1.70;;;1.30;;
36989;SDS011;22898;52.102;5.776;2023-06-22T01:15:18;1.35;;;1.15;;
36989;SDS011;22898;52.102;5.776;2023-06-22T01:17:52;1.80;;;1.33;;
36989;SDS011;22898;52.102;5.776;2023-06-22T01:20:18;1.60;;;1.10;;
36989;SDS011;22898;52.102;5.776;2023-06-22T01:31:17;1.58;;;1.15;;
36989;SDS011;22898;52.102;5.776;2023-06-22T01:33:47;2.00;;;1.65;;
36989;SDS011;22898;52.102;5.776;2023-06-22T01:36:15;1.30;;;0.98;;
36989;SDS011;22898;52.102;5.776;2023-06-22T01:38:42;2.92;;;1.60;;
36989;SDS011;22898;52.102;5.776;2023-06-22T01:41:09;1.95;;;1.30;;
36989;SDS011;22898;52.102;5.776;2023-06-22T01:43:35;2.42;;;1.23;;
36989;SDS011;22898;52.102;5.776;2023-06-22T01:46:02;1.33;;;1.13;;
36989;SDS011;22898;52.102;5.776;2023-06-22T01:48:28;1.65;;;1.10;;
36989;SDS011;22898;52.102;5.776;2023-06-22T01:50:54;2.85;;;1.45;;
36989;SDS011;22898;52.102;5.776;2023-06-22T01:53:24;1.92;;;1.48;;
36989;SDS011;22898;52.102;5.776;2023-06-22T01:55:50;1.77;;;1.20;;
36989;SDS011;22898;52.102;5.776;2023-06-22T01:58:15;1.80;;;1.13;;
36989;SDS011;22898;52.102;5.776;2023-06-22T02:00:44;1.90;;;1.38;;
36989;SDS011;22898;52.102;5.776;2023-06-22T02:03:19;2.30;;;1.13;;
36989;SDS011;22898;52.102;5.776;2023-06-22T02:05:49;1.38;;;1.00;;
36989;SDS011;22898;52.102;5.776;2023-06-22T02:08:19;4.13;;;1.83;;
36989;SDS011;22898;52.102;5.776;2023-06-22T02:10:54;2.35;;;1.52;;
36989;SDS011;22898;52.102;5.776;2023-06-22T02:13:23;1.25;;;1.08;;
36989;SDS011;22898;52.102;5.776;2023-06-22T02:15:49;1.70;;;1.42;;
36989;SDS011;22898;52.102;5.776;2023-06-22T02:18:16;1.83;;;1.63;;
36989;SDS011;22898;52.102;5.776;2023-06-22T02:20:41;1.77;;;1.25;;
36989;SDS011;22898;52.102;5.776;2023-06-22T02:23:07;2.13;;;1.50;;
36989;SDS011;22898;52.102;5.776;2023-06-22T02:25:33;2.45;;;1.38;;
36989;SDS011;22898;52.102;5.776;2023-06-22T02:27:59;1.35;;;1.00;;
36989;SDS011;22898;52.102;5.776;2023-06-22T02:30:25;2.00;;;1.55;;
36989;SDS011;22898;52.102;5.776;2023-06-22T02:32:51;2.72;;;1.63;;
36989;SDS011;22898;52.102;5.776;2023-06-22T02:35:23;1.73;;;1.30;;
36989;SDS011;22898;52.102;5.776;2023-06-22T02:37:56;1.48;;;1.27;;
36989;SDS011;22898;52.102;5.776;2023-06-22T02:40:25;2.03;;;1.50;;
36989;SDS011;22898;52.102;5.776;2023-06-22T02:42:51;1.98;;;1.30;;
36989;SDS011;22898;52.102;5.776;2023-06-22T02:45:17;1.00;;;0.88;;
36989;SDS011;22898;52.102;5.776;2023-06-22T02:47:42;1.55;;;1.02;;
36989;SDS011;22898;52.102;5.776;2023-06-22T02:50:08;1.70;;;1.40;;
36989;SDS011;22898;52.102;5.776;2023-06-22T02:52:34;1.52;;;1.23;;
36989;SDS011;22898;52.102;5.776;2023-06-22T02:55:00;1.95;;;1.30;;
36989;SDS011;22898;52.102;5.776;2023-06-22T02:57:26;5.05;;;1.65;;
36989;SDS011;22898;52.102;5.776;2023-06-22T02:59:51;1.05;;;0.98;;
36989;SDS011;22898;52.102;5.776;2023-06-22T03:02:17;2.10;;;1.38;;
36989;SDS011;22898;52.102;5.776;2023-06-22T03:04:45;2.58;;;1.92;;
36989;SDS011;22898;52.102;5.776;2023-06-22T03:07:14;0.75;;;0.73;;
36989;SDS011;22898;52.102;5.776;2023-06-22T03:09:42;1.83;;;1.42;;
36989;SDS011;22898;52.102;5.776;2023-06-22T03:12:08;2.15;;;1.10;;
36989;SDS011;22898;52.102;5.776;2023-06-22T03:14:33;1.40;;;1.30;;
36989;SDS011;22898;52.102;5.776;2023-06-22T03:16:59;1.38;;;1.20;;
36989;SDS011;22898;52.102;5.776;2023-06-22T03:19:28;1.60;;;1.13;;
36989;SDS011;22898;52.102;5.776;2023-06-22T03:21:56;1.63;;;1.33;;
36989;SDS011;22898;52.102;5.776;2023-06-22T03:24:25;2.42;;;1.48;;
36989;SDS011;22898;52.102;5.776;2023-06-22T03:26:53;4.95;;;1.92;;
36989;SDS011;22898;52.102;5.776;2023-06-22T03:29:19;1.60;;;1.40;;
36989;SDS011;22898;52.102;5.776;2023-06-22T03:31:45;1.35;;;0.95;;
36989;SDS011;22898;52.102;5.776;2023-06-22T03:34:10;2.20;;;1.13;;
36989;SDS011;22898;52.102;5.776;2023-06-22T03:36:36;2.00;;;1.45;;
36989;SDS011;22898;52.102;5.776;2023-06-22T03:39:02;2.63;;;1.23;;
36989;SDS011;22898;52.102;5.776;2023-06-22T03:41:27;2.90;;;1.85;;
36989;SDS011;22898;52.102;5.776;2023-06-22T03:43:53;3.05;;;1.67;;
36989;SDS011;22898;52.102;5.776;2023-06-22T03:46:18;4.60;;;1.65;;
36989;SDS011;22898;52.102;5.776;2023-06-22T03:48:45;2.42;;;1.33;;
36989;SDS011;22898;52.102;5.776;2023-06-22T03:51:10;2.78;;;1.83;;
36989;SDS011;22898;52.102;5.776;2023-06-22T03:53:36;2.30;;;1.60;;
36989;SDS011;22898;52.102;5.776;2023-06-22T03:56:01;2.28;;;1.60;;
36989;SDS011;22898;52.102;5.776;2023-06-22T03:58:27;4.03;;;1.95;;
36989;SDS011;22898;52.102;5.776;2023-06-22T04:00:58;2.80;;;2.20;;
36989;SDS011;22898;52.102;5.776;2023-06-22T04:03:24;3.78;;;1.50;;
36989;SDS011;22898;52.102;5.776;2023-06-22T04:05:50;5.00;;;2.80;;
36989;SDS011;22898;52.102;5.776;2023-06-22T04:08:16;3.17;;;2.08;;
36989;SDS011;22898;52.102;5.776;2023-06-22T04:10:41;3.38;;;2.13;;
36989;SDS011;22898;52.102;5.776;2023-06-22T04:13:07;3.45;;;1.98;;
36989;SDS011;22898;52.102;5.776;2023-06-22T04:15:33;9.32;;;2.40;;
36989;SDS011;22898;52.102;5.776;2023-06-22T04:17:59;3.33;;;2.20;;
36989;SDS011;22898;52.102;5.776;2023-06-22T04:20:24;2.47;;;2.00;;
36989;SDS011;22898;52.102;5.776;2023-06-22T04:22:53;3.15;;;2.17;;
36989;SDS011;22898;52.102;5.776;2023-06-22T04:25:19;4.60;;;1.88;;
36989;SDS011;22898;52.102;5.776;2023-06-22T04:27:45;6.32;;;1.80;;
36989;SDS011;22898;52.102;5.776;2023-06-22T04:30:11;6.30;;;1.95;;
36989;SDS011;22898;52.102;5.776;2023-06-22T04:32:41;3.75;;;2.60;;
36989;SDS011;22898;52.102;5.776;2023-06-22T04:35:06;3.53;;;2.42;;
36989;SDS011;22898;52.102;5.776;2023-06-22T04:37:33;3.22;;;2.13;;
36989;SDS011;22898;52.102;5.776;2023-06-22T04:39:58;3.20;;;2.42;;
36989;SDS011;22898;52.102;5.776;2023-06-22T04:42:27;4.78;;;3.17;;
36989;SDS011;22898;52.102;5.776;2023-06-22T04:44:53;5.25;;;3.45;;
36989;SDS011;22898;52.102;5.776;2023-06-22T04:47:19;5.93;;;3.75;;
36989;SDS011;22898;52.102;5.776;2023-06-22T04:49:44;5.00;;;3.10;;
36989;SDS011;22898;52.102;5.776;2023-06-22T04:52:10;4.80;;;2.85;;
36989;SDS011;22898;52.102;5.776;2023-06-22T04:54:38;4.20;;;2.97;;
36989;SDS011;22898;52.102;5.776;2023-06-22T04:57:06;6.60;;;3.75;;
36989;SDS011;22898;52.102;5.776;2023-06-22T04:59:35;9.40;;;4.45;;
36989;SDS011;22898;52.102;5.776;2023-06-22T05:02:04;7.07;;;4.40;;
36989;SDS011;22898;52.102;5.776;2023-06-22T05:04:30;11.18;;;4.07;;
36989;SDS011;22898;52.102;5.776;2023-06-22T05:06:56;10.30;;;5.70;;
36989;SDS011;22898;52.102;5.776;2023-06-22T05:09:23;8.35;;;6.03;;
36989;SDS011;22898;52.102;5.776;2023-06-22T05:11:50;9.85;;;5.82;;
36989;SDS011;22898;52.102;5.776;2023-06-22T05:14:16;9.60;;;4.97;;
36989;SDS011;22898;52.102;5.776;2023-06-22T05:16:41;10.50;;;5.43;;
36989;SDS011;22898;52.102;5.776;2023-06-22T05:19:07;9.98;;;5.38;;
36989;SDS011;22898;52.102;5.776;2023-06-22T05:21:33;10.38;;;6.18;;
36989;SDS011;22898;52.102;5.776;2023-06-22T05:23:59;11.95;;;5.75;;
36989;SDS011;22898;52.102;5.776;2023-06-22T05:26:27;9.70;;;5.20;;
36989;SDS011;22898;52.102;5.776;2023-06-22T05:28:53;10.75;;;6.85;;
36989;SDS011;22898;52.102;5.776;2023-06-22T05:31:18;9.60;;;5.90;;
36989;SDS011;22898;52.102;5.776;2023-06-22T05:33:45;11.55;;;5.97;;
36989;SDS011;22898;52.102;5.776;2023-06-22T05:36:11;7.13;;;5.20;;
36989;SDS011;22898;52.102;5.776;2023-06-22T05:38:37;8.02;;;5.78;;
36989;SDS011;22898;52.102;5.776;2023-06-22T05:41:04;7.53;;;5.18;;
36989;SDS011;22898;52.102;5.776;2023-06-22T05:43:30;10.57;;;6.57;;
36989;SDS011;22898;52.102;5.776;2023-06-22T05:45:56;10.57;;;6.22;;
36989;SDS011;22898;52.102;5.776;2023-06-22T05:48:21;9.95;;;5.85;;
36989;SDS011;22898;52.102;5.776;2023-06-22T05:50:47;9.30;;;5.57;;
36989;SDS011;22898;52.102;5.776;2023-06-22T05:53:13;6.88;;;4.60;;
36989;SDS011;22898;52.102;5.776;2023-06-22T05:55:38;9.80;;;5.20;;
36989;SDS011;22898;52.102;5.776;2023-06-22T05:58:04;8.40;;;4.95;;
36989;SDS011;22898;52.102;5.776;2023-06-22T06:00:30;9.07;;;5.15;;
36989;SDS011;22898;52.102;5.776;2023-06-22T06:02:55;6.05;;;4.75;;
36989;SDS011;22898;52.102;5.776;2023-06-22T06:05:21;7.63;;;4.35;;
36989;SDS011;22898;52.102;5.776;2023-06-22T06:07:48;10.10;;;4.88;;
36989;SDS011;22898;52.102;5.776;2023-06-22T06:10:14;8.02;;;4.57;;
36989;SDS011;22898;52.102;5.776;2023-06-22T06:12:40;5.57;;;3.80;;
36989;SDS011;22898;52.102;5.776;2023-06-22T06:15:05;6.75;;;4.88;;
36989;SDS011;22898;52.102;5.776;2023-06-22T06:17:31;5.70;;;3.85;;
36989;SDS011;22898;52.102;5.776;2023-06-22T06:19:58;11.68;;;4.85;;
36989;SDS011;22898;52.102;5.776;2023-06-22T06:22:24;8.18;;;5.32;;
36989;SDS011;22898;52.102;5.776;2023-06-22T06:24:50;6.15;;;3.45;;
36989;SDS011;22898;52.102;5.776;2023-06-22T06:27:16;6.80;;;3.75;;
36989;SDS011;22898;52.102;5.776;2023-06-22T06:29:44;5.32;;;3.70;;
36989;SDS011;22898;52.102;5.776;2023-06-22T06:32:13;6.28;;;3.60;;
36989;SDS011;22898;52.102;5.776;2023-06-22T06:34:39;4.95;;;3.47;;
36989;SDS011;22898;52.102;5.776;2023-06-22T06:37:05;7.60;;;4.47;;
36989;SDS011;22898;52.102;5.776;2023-06-22T06:39:31;5.03;;;3.28;;
36989;SDS011;22898;52.102;5.776;2023-06-22T06:41:56;5.20;;;2.78;;
36989;SDS011;22898;52.102;5.776;2023-06-22T06:44:22;4.20;;;2.50;;
36989;SDS011;22898;52.102;5.776;2023-06-22T06:46:47;4.70;;;3.17;;
36989;SDS011;22898;52.102;5.776;2023-06-22T06:49:13;4.32;;;3.47;;
36989;SDS011;22898;52.102;5.776;2023-06-22T06:51:38;5.22;;;3.28;;
36989;SDS011;22898;52.102;5.776;2023-06-22T06:54:04;6.97;;;3.30;;
36989;SDS011;22898;52.102;5.776;2023-06-22T06:56:29;5.22;;;2.92;;
36989;SDS011;22898;52.102;5.776;2023-06-22T06:58:55;5.88;;;3.35;;
36989;SDS011;22898;52.102;5.776;2023-06-22T07:01:20;4.55;;;2.53;;
36989;SDS011;22898;52.102;5.776;2023-06-22T07:03:46;5.25;;;3.30;;
36989;SDS011;22898;52.102;5.776;2023-06-22T07:06:13;5.97;;;3.08;;
36989;SDS011;22898;52.102;5.776;2023-06-22T07:08:38;5.72;;;3.97;;
36989;SDS011;22898;52.102;5.776;2023-06-22T07:11:04;4.30;;;2.53;;
36989;SDS011;22898;52.102;5.776;2023-06-22T07:13:30;4.93;;;3.00;;
36989;SDS011;22898;52.102;5.776;2023-06-22T07:15:56;5.93;;;3.55;;
36989;SDS011;22898;52.102;5.776;2023-06-22T07:18:21;5.38;;;3.55;;
36989;SDS011;22898;52.102;5.776;2023-06-22T07:20:47;4.22;;;3.25;;
36989;SDS011;22898;52.102;5.776;2023-06-22T07:23:12;5.97;;;3.67;;
36989;SDS011;22898;52.102;5.776;2023-06-22T07:25:38;4.25;;;2.90;;
36989;SDS011;22898;52.102;5.776;2023-06-22T07:28:05;6.00;;;3.80;;
36989;SDS011;22898;52.102;5.776;2023-06-22T07:30:32;5.80;;;3.42;;
36989;SDS011;22898;52.102;5.776;2023-06-22T07:32:58;4.07;;;2.90;;
36989;SDS011;22898;52.102;5.776;2023-06-22T07:35:29;7.63;;;3.67;;
36989;SDS011;22898;52.102;5.776;2023-06-22T07:37:55;6.07;;;3.78;;
36989;SDS011;22898;52.102;5.776;2023-06-22T07:40:21;4.70;;;2.75;;
36989;SDS011;22898;52.102;5.776;2023-06-22T07:42:47;5.03;;;3.15;;
36989;SDS011;22898;52.102;5.776;2023-06-22T07:45:16;5.57;;;3.20;;
36989;SDS011;22898;52.102;5.776;2023-06-22T07:47:42;6.53;;;3.92;;
36989;SDS011;22898;52.102;5.776;2023-06-22T07:50:08;3.13;;;2.20;;
36989;SDS011;22898;52.102;5.776;2023-06-22T07:52:34;7.45;;;2.75;;
36989;SDS011;22898;52.102;5.776;2023-06-22T07:55:00;4.20;;;2.90;;
36989;SDS011;22898;52.102;5.776;2023-06-22T07:57:25;4.88;;;3.05;;
36989;SDS011;22898;52.102;5.776;2023-06-22T07:59:57;3.97;;;2.53;;
36989;SDS011;22898;52.102;5.776;2023-06-22T08:02:23;4.32;;;2.67;;
36989;SDS011;22898;52.102;5.776;2023-06-22T08:04:49;3.50;;;2.25;;
36989;SDS011;22898;52.102;5.776;2023-06-22T08:07:15;6.18;;;2.88;;
36989;SDS011;22898;52.102;5.776;2023-06-22T08:09:42;5.68;;;2.55;;
36989;SDS011;22898;52.102;5.776;2023-06-22T08:12:13;6.55;;;3.15;;
36989;SDS011;22898;52.102;5.776;2023-06-22T08:14:38;5.22;;;3.65;;
36989;SDS011;22898;52.102;5.776;2023-06-22T08:17:04;3.50;;;2.45;;
36989;SDS011;22898;52.102;5.776;2023-06-22T08:19:30;5.13;;;2.88;;
36989;SDS011;22898;52.102;5.776;2023-06-22T08:21:56;3.97;;;3.08;;
36989;SDS011;22898;52.102;5.776;2023-06-22T08:24:22;3.97;;;2.33;;
36989;SDS011;22898;52.102;5.776;2023-06-22T08:26:50;3.58;;;2.78;;
36989;SDS011;22898;52.102;5.776;2023-06-22T08:29:16;4.88;;;2.65;;
36989;SDS011;22898;52.102;5.776;2023-06-22T08:31:42;5.18;;;2.60;;
36989;SDS011;22898;52.102;5.776;2023-06-22T08:34:08;4.30;;;2.60;;
36989;SDS011;22898;52.102;5.776;2023-06-22T08:36:33;2.20;;;1.80;;
36989;SDS011;22898;52.102;5.776;2023-06-22T08:39:03;3.88;;;2.65;;
36989;SDS011;22898;52.102;5.776;2023-06-22T08:41:29;3.08;;;1.83;;
36989;SDS011;22898;52.102;5.776;2023-06-22T08:43:54;3.85;;;2.47;;
36989;SDS011;22898;52.102;5.776;2023-06-22T08:46:20;4.57;;;2.22;;
36989;SDS011;22898;52.102;5.776;2023-06-22T08:48:49;3.20;;;2.05;;
36989;SDS011;22898;52.102;5.776;2023-06-22T08:51:15;4.28;;;2.42;;
36989;SDS011;22898;52.102;5.776;2023-06-22T08:53:41;3.22;;;2.03;;
36989;SDS011;22898;52.102;5.776;2023-06-22T08:56:08;3.45;;;2.40;;
36989;SDS011;22898;52.102;5.776;2023-06-22T08:58:33;4.07;;;2.17;;
36989;SDS011;22898;52.102;5.776;2023-06-22T09:00:59;2.20;;;1.80;;
36989;SDS011;22898;52.102;5.776;2023-06-22T09:03:26;2.88;;;2.08;;
36989;SDS011;22898;52.102;5.776;2023-06-22T09:05:52;3.20;;;2.20;;
36989;SDS011;22898;52.102;5.776;2023-06-22T09:08:17;2.75;;;2.13;;
36989;SDS011;22898;52.102;5.776;2023-06-22T09:10:43;4.00;;;2.33;;
36989;SDS011;22898;52.102;5.776;2023-06-22T09:13:08;2.55;;;2.10;;
36989;SDS011;22898;52.102;5.776;2023-06-22T09:15:34;4.10;;;1.80;;
36989;SDS011;22898;52.102;5.776;2023-06-22T09:17:59;4.25;;;2.25;;
36989;SDS011;22898;52.102;5.776;2023-06-22T09:20:25;2.53;;;1.83;;
36989;SDS011;22898;52.102;5.776;2023-06-22T09:22:51;4.40;;;2.15;;
36989;SDS011;22898;52.102;5.776;2023-06-22T09:25:16;17.17;;;2.33;;
36989;SDS011;22898;52.102;5.776;2023-06-22T09:27:42;1.85;;;1.60;;
36989;SDS011;22898;52.102;5.776;2023-06-22T09:30:07;2.13;;;1.63;;
36989;SDS011;22898;52.102;5.776;2023-06-22T09:32:33;2.97;;;1.83;;
36989;SDS011;22898;52.102;5.776;2023-06-22T09:35:02;2.47;;;1.65;;
36989;SDS011;22898;52.102;5.776;2023-06-22T09:37:30;2.53;;;1.83;;
36989;SDS011;22898;52.102;5.776;2023-06-22T09:39:56;2.65;;;1.58;;
36989;SDS011;22898;52.102;5.776;2023-06-22T09:42:21;2.70;;;1.95;;
36989;SDS011;22898;52.102;5.776;2023-06-22T09:44:47;2.55;;;1.45;;
36989;SDS011;22898;52.102;5.776;2023-06-22T09:47:12;2.42;;;1.60;;
36989;SDS011;22898;52.102;5.776;2023-06-22T09:49:38;3.58;;;1.90;;
36989;SDS011;22898;52.102;5.776;2023-06-22T09:52:04;2.53;;;1.83;;
36989;SDS011;22898;52.102;5.776;2023-06-22T09:54:30;3.45;;;2.00;;
36989;SDS011;22898;52.102;5.776;2023-06-22T09:56:56;1.70;;;1.50;;
36989;SDS011;22898;52.102;5.776;2023-06-22T09:59:21;2.45;;;2.00;;
36989;SDS011;22898;52.102;5.776;2023-06-22T10:01:47;2.20;;;1.85;;
36989;SDS011;22898;52.102;5.776;2023-06-22T10:04:12;3.88;;;2.20;;
36989;SDS011;22898;52.102;5.776;2023-06-22T10:06:38;2.08;;;1.88;;
36989;SDS011;22898;52.102;5.776;2023-06-22T10:09:05;2.78;;;2.10;;
36989;SDS011;22898;52.102;5.776;2023-06-22T10:11:31;2.22;;;1.83;;
36989;SDS011;22898;52.102;5.776;2023-06-22T10:13:59;1.85;;;1.70;;
36989;SDS011;22898;52.102;5.776;2023-06-22T10:16:30;2.70;;;1.75;;
36989;SDS011;22898;52.102;5.776;2023-06-22T10:18:56;3.40;;;1.95;;
36989;SDS011;22898;52.102;5.776;2023-06-22T10:21:22;2.50;;;1.75;;
36989;SDS011;22898;52.102;5.776;2023-06-22T10:23:47;4.07;;;2.38;;
36989;SDS011;22898;52.102;5.776;2023-06-22T10:26:13;4.95;;;1.98;;
36989;SDS011;22898;52.102;5.776;2023-06-22T10:28:38;3.40;;;2.38;;
36989;SDS011;22898;52.102;5.776;2023-06-22T10:31:04;1.77;;;1.52;;
36989;SDS011;22898;52.102;5.776;2023-06-22T10:33:29;4.15;;;2.58;;
36989;SDS011;22898;52.102;5.776;2023-06-22T10:35:55;2.70;;;1.92;;
36989;SDS011;22898;52.102;5.776;2023-06-22T10:38:20;2.60;;;1.95;;
36989;SDS011;22898;52.102;5.776;2023-06-22T10:40:46;2.65;;;1.92;;
36989;SDS011;22898;52.102;5.776;2023-06-22T10:43:12;2.45;;;1.75;;
36989;SDS011;22898;52.102;5.776;2023-06-22T10:45:37;1.75;;;1.50;;
36989;SDS011;22898;52.102;5.776;2023-06-22T10:48:03;3.63;;;2.13;;
36989;SDS011;22898;52.102;5.776;2023-06-22T10:50:29;2.38;;;1.85;;
36989;SDS011;22898;52.102;5.776;2023-06-22T10:52:55;2.67;;;1.83;;
36989;SDS011;22898;52.102;5.776;2023-06-22T10:55:20;4.07;;;2.30;;
36989;SDS011;22898;52.102;5.776;2023-06-22T10:57:46;3.22;;;2.15;;
36989;SDS011;22898;52.102;5.776;2023-06-22T11:00:12;1.92;;;1.58;;
36989;SDS011;22898;52.102;5.776;2023-06-22T11:02:38;4.88;;;2.72;;
36989;SDS011;22898;52.102;5.776;2023-06-22T11:05:04;3.53;;;2.55;;
36989;SDS011;22898;52.102;5.776;2023-06-22T11:07:30;3.22;;;1.80;;
36989;SDS011;22898;52.102;5.776;2023-06-22T11:09:56;3.90;;;2.60;;
36989;SDS011;22898;52.102;5.776;2023-06-22T11:12:21;3.05;;;2.08;;
36989;SDS011;22898;52.102;5.776;2023-06-22T11:14:47;3.13;;;2.22;;
36989;SDS011;22898;52.102;5.776;2023-06-22T11:17:15;3.08;;;1.98;;
36989;SDS011;22898;52.102;5.776;2023-06-22T11:19:40;2.95;;;2.40;;
36989;SDS011;22898;52.102;5.776;2023-06-22T11:22:06;3.25;;;2.10;;
36989;SDS011;22898;52.102;5.776;2023-06-22T11:24:31;3.30;;;2.38;;
36989;SDS011;22898;52.102;5.776;2023-06-22T11:26:57;5.70;;;2.28;;
36989;SDS011;22898;52.102;5.776;2023-06-22T11:29:23;4.65;;;2.63;;
36989;SDS011;22898;52.102;5.776;2023-06-22T11:31:48;5.10;;;3.10;;
36989;SDS011;22898;52.102;5.776;2023-06-22T11:34:14;5.40;;;2.53;;
36989;SDS011;22898;52.102;5.776;2023-06-22T11:36:40;3.65;;;2.58;;
36989;SDS011;22898;52.102;5.776;2023-06-22T11:39:07;4.80;;;3.13;;
36989;SDS011;22898;52.102;5.776;2023-06-22T11:41:34;4.00;;;2.50;;
36989;SDS011;22898;52.102;5.776;2023-06-22T11:44:00;3.65;;;2.67;;
36989;SDS011;22898;52.102;5.776;2023-06-22T11:46:25;4.03;;;2.85;;
36989;SDS011;22898;52.102;5.776;2023-06-22T11:48:51;6.35;;;2.72;;
36989;SDS011;22898;52.102;5.776;2023-06-22T11:51:17;4.68;;;2.75;;
36989;SDS011;22898;52.102;5.776;2023-06-22T11:53:42;6.78;;;3.38;;
36989;SDS011;22898;52.102;5.776;2023-06-22T11:56:08;3.97;;;3.00;;
36989;SDS011;22898;52.102;5.776;2023-06-22T11:58:33;3.88;;;2.58;;
36989;SDS011;22898;52.102;5.776;2023-06-22T12:00:59;3.90;;;2.40;;
36989;SDS011;22898;52.102;5.776;2023-06-22T12:03:24;3.42;;;2.63;;
36989;SDS011;22898;52.102;5.776;2023-06-22T12:05:50;3.10;;;2.42;;
36989;SDS011;22898;52.102;5.776;2023-06-22T12:08:17;3.10;;;2.05;;
36989;SDS011;22898;52.102;5.776;2023-06-22T12:10:43;5.38;;;3.10;;
36989;SDS011;22898;52.102;5.776;2023-06-22T12:13:09;4.80;;;2.47;;
36989;SDS011;22898;52.102;5.776;2023-06-22T12:15:34;4.57;;;2.78;;
36989;SDS011;22898;52.102;5.776;2023-06-22T12:18:00;2.55;;;1.98;;
36989;SDS011;22898;52.102;5.776;2023-06-22T12:20:26;2.78;;;2.05;;
36989;SDS011;22898;52.102;5.776;2023-06-22T12:22:51;3.00;;;2.08;;
36989;SDS011;22898;52.102;5.776;2023-06-22T12:25:19;4.78;;;2.88;;
36989;SDS011;22898;52.102;5.776;2023-06-22T12:27:44;3.30;;;2.35;;
36989;SDS011;22898;52.102;5.776;2023-06-22T12:30:10;3.78;;;2.40;;
36989;SDS011;22898;52.102;5.776;2023-06-22T12:32:35;4.43;;;1.98;;
36989;SDS011;22898;52.102;5.776;2023-06-22T12:35:01;2.65;;;1.95;;
36989;SDS011;22898;52.102;5.776;2023-06-22T12:37:26;5.05;;;2.00;;
36989;SDS011;22898;52.102;5.776;2023-06-22T12:39:54;3.13;;;2.38;;
36989;SDS011;22898;52.102;5.776;2023-06-22T12:42:20;3.50;;;2.30;;
36989;SDS011;22898;52.102;5.776;2023-06-22T12:44:46;3.67;;;2.50;;
36989;SDS011;22898;52.102;5.776;2023-06-22T12:47:11;4.07;;;2.47;;
36989;SDS011;22898;52.102;5.776;2023-06-22T12:49:38;4.70;;;2.90;;
36989;SDS011;22898;52.102;5.776;2023-06-22T12:52:08;4.82;;;2.33;;
36989;SDS011;22898;52.102;5.776;2023-06-22T12:54:35;3.97;;;2.75;;
36989;SDS011;22898;52.102;5.776;2023-06-22T12:57:01;4.05;;;2.38;;
36989;SDS011;22898;52.102;5.776;2023-06-22T12:59:26;4.60;;;2.30;;
36989;SDS011;22898;52.102;5.776;2023-06-22T13:01:52;2.42;;;2.10;;
36989;SDS011;22898;52.102;5.776;2023-06-22T13:04:17;5.63;;;3.33;;
36989;SDS011;22898;52.102;5.776;2023-06-22T13:06:44;3.95;;;2.75;;
36989;SDS011;22898;52.102;5.776;2023-06-22T13:09:12;4.38;;;2.75;;
36989;SDS011;22898;52.102;5.776;2023-06-22T13:11:38;3.53;;;2.63;;
36989;SDS011;22898;52.102;5.776;2023-06-22T13:14:04;5.05;;;3.40;;
36989;SDS011;22898;52.102;5.776;2023-06-22T13:16:30;5.25;;;3.42;;
36989;SDS011;22898;52.102;5.776;2023-06-22T13:18:55;4.38;;;2.67;;
36989;SDS011;22898;52.102;5.776;2023-06-22T13:21:21;4.03;;;2.95;;
36989;SDS011;22898;52.102;5.776;2023-06-22T13:23:46;4.25;;;2.75;;
36989;SDS011;22898;52.102;5.776;2023-06-22T13:26:12;5.72;;;2.97;;
36989;SDS011;22898;52.102;5.776;2023-06-22T13:28:37;4.63;;;3.00;;
36989;SDS011;22898;52.102;5.776;2023-06-22T13:31:03;5.22;;;3.78;;
36989;SDS011;22898;52.102;5.776;2023-06-22T13:33:29;4.43;;;3.10;;
36989;SDS011;22898;52.102;5.776;2023-06-22T13:35:55;5.57;;;3.40;;
36989;SDS011;22898;52.102;5.776;2023-06-22T13:38:20;4.88;;;3.50;;
36989;SDS011;22898;52.102;5.776;2023-06-22T13:40:47;4.45;;;2.90;;
36989;SDS011;22898;52.102;5.776;2023-06-22T13:43:13;4.95;;;3.05;;
36989;SDS011;22898;52.102;5.776;2023-06-22T13:45:38;5.63;;;3.88;;
36989;SDS011;22898;52.102;5.776;2023-06-22T13:48:05;4.40;;;3.20;;
36989;SDS011;22898;52.102;5.776;2023-06-22T13:50:31;5.18;;;3.83;;
36989;SDS011;22898;52.102;5.776;2023-06-22T13:52:56;3.97;;;3.22;;
36989;SDS011;22898;52.102;5.776;2023-06-22T13:55:22;5.50;;;4.03;;
36989;SDS011;22898;52.102;5.776;2023-06-22T13:57:48;5.47;;;4.00;;
36989;SDS011;22898;52.102;5.776;2023-06-22T14:00:14;5.65;;;3.92;;
36989;SDS011;22898;52.102;5.776;2023-06-22T14:02:40;6.43;;;4.43;;
36989;SDS011;22898;52.102;5.776;2023-06-22T14:05:06;5.78;;;3.95;;
36989;SDS011;22898;52.102;5.776;2023-06-22T14:07:32;5.88;;;4.40;;
36989;SDS011;22898;52.102;5.776;2023-06-22T14:09:59;6.95;;;3.97;;
36989;SDS011;22898;52.102;5.776;2023-06-22T14:12:25;7.07;;;4.53;;
36989;SDS011;22898;52.102;5.776;2023-06-22T14:14:50;7.68;;;4.78;;
36989;SDS011;22898;52.102;5.776;2023-06-22T14:17:16;5.70;;;4.55;;
36989;SDS011;22898;52.102;5.776;2023-06-22T14:19:41;6.32;;;4.32;;
36989;SDS011;22898;52.102;5.776;2023-06-22T14:22:07;6.15;;;4.75;;
36989;SDS011;22898;52.102;5.776;2023-06-22T14:24:32;4.97;;;3.95;;
36989;SDS011;22898;52.102;5.776;2023-06-22T14:26:59;7.00;;;4.35;;
36989;SDS011;22898;52.102;5.776;2023-06-22T14:29:27;6.20;;;4.55;;
36989;SDS011;22898;52.102;5.776;2023-06-22T14:31:53;7.05;;;4.82;;
36989;SDS011;22898;52.102;5.776;2023-06-22T14:34:18;8.27;;;4.93;;
36989;SDS011;22898;52.102;5.776;2023-06-22T14:36:44;6.90;;;4.60;;
36989;SDS011;22898;52.102;5.776;2023-06-22T14:39:09;6.72;;;4.82;;
36989;SDS011;22898;52.102;5.776;2023-06-22T14:41:35;7.72;;;4.80;;
36989;SDS011;22898;52.102;5.776;2023-06-22T14:44:01;8.48;;;4.88;;
36989;SDS011;22898;52.102;5.776;2023-06-22T14:46:26;6.25;;;4.35;;
36989;SDS011;22898;52.102;5.776;2023-06-22T14:48:52;6.20;;;4.57;;
36989;SDS011;22898;52.102;5.776;2023-06-22T14:51:17;6.85;;;5.25;;
36989;SDS011;22898;52.102;5.776;2023-06-22T14:53:44;6.82;;;4.60;;